Time;durP1;ratioP1;P1;durP2;ratioP2;P2;SDS_P1;SDS_P2;PMS_P1;PMS_P2;Temp;Humidity;BMP_temperature;BMP_pressure;BME280_temperature;BME280_humidity;BME280_pressure;Samples;Min_cycle;Max_cycle;Signal;HPM_P1;HPM_P2
2022/05/13 00:03:06;;;;;;;0.20;0.10;;;16.00;99.90;;;;;;26421824;22;20181;-72
2022/05/13 00:13:10;;;;;;;0.20;0.10;;;15.90;99.90;;;;;;26398521;22;20393;-73
2022/05/13 00:23:16;;;;;;;0.20;0.10;;;15.80;99.90;;;;;;26425222;22;20186;-74
2022/05/13 00:33:21;;;;;;;0.20;0.10;;;15.70;99.90;;;;;;26378128;22;20157;-73
2022/05/13 00:43:49;;;;;;;0.20;0.10;;;15.70;99.90;;;;;;26405360;22;20182;-74
2022/05/13 00:53:55;;;;;;;0.20;0.10;;;15.60;99.90;;;;;;26432369;22;20182;-73
2022/05/13 01:04:04;;;;;;;0.20;0.10;;;15.60;99.90;;;;;;26430167;22;20178;-73
2022/05/13 01:14:12;;;;;;;0.20;0.10;;;15.70;99.90;;;;;;26401182;22;20189;-73
2022/05/13 01:24:22;;;;;;;0.20;0.10;;;15.20;99.90;;;;;;26432587;22;20614;-72
2022/05/13 01:34:26;;;;;;;0.20;0.10;;;15.20;99.90;;;;;;26401888;22;20180;-73
2022/05/13 01:44:31;;;;;;;0.20;0.10;;;15.00;99.90;;;;;;26433506;22;20193;-72
2022/05/13 01:54:35;;;;;;;0.20;0.10;;;15.40;99.90;;;;;;26403531;22;20201;-73
2022/05/13 02:04:40;;;;;;;0.20;0.00;;;16.00;99.90;;;;;;26431759;22;20182;-76
2022/05/13 02:14:44;;;;;;;0.20;0.03;;;15.60;99.90;;;;;;26405274;22;20197;-73
2022/05/13 02:24:49;;;;;;;0.20;0.10;;;15.10;99.90;;;;;;26402587;22;20186;-73
2022/05/13 02:34:53;;;;;;;0.20;0.00;;;14.90;99.90;;;;;;26401821;22;20169;-73
2022/05/13 02:44:58;;;;;;;0.20;0.00;;;14.50;99.90;;;;;;26375632;22;20182;-73
2022/05/13 02:55:02;;;;;;;0.20;0.10;;;14.30;99.90;;;;;;26430595;22;20194;-73
2022/05/13 03:05:08;;;;;;;0.20;0.10;;;14.30;99.90;;;;;;26402921;22;20190;-74
2022/05/13 03:15:14;;;;;;;0.20;0.00;;;14.00;99.90;;;;;;26427893;22;20158;-74
2022/05/13 03:25:20;;;;;;;0.20;0.10;;;13.90;99.90;;;;;;26428277;22;20900;-75
2022/05/13 03:35:24;;;;;;;0.20;0.10;;;13.80;99.90;;;;;;26402892;22;20162;-74
2022/05/13 03:45:32;;;;;;;0.20;0.00;;;13.80;99.90;;;;;;26398714;22;20193;-72
2022/05/13 03:55:36;;;;;;;0.20;0.10;;;13.30;99.90;;;;;;26375962;22;20193;-73
2022/05/13 04:16:07;;;;;;;0.20;0.03;;;13.70;99.90;;;;;;26427936;22;20177;-73
2022/05/13 04:26:13;;;;;;;0.20;0.10;;;13.60;99.90;;;;;;26424223;22;20178;-74
2022/05/13 04:36:17;;;;;;;0.20;0.10;;;13.40;99.90;;;;;;26398625;22;20166;-73
2022/05/13 04:46:23;;;;;;;0.20;0.10;;;13.70;99.90;;;;;;26426065;22;20266;-73
2022/05/13 04:56:29;;;;;;;0.20;0.10;;;13.50;99.90;;;;;;26426978;22;20186;-73
2022/05/13 05:06:36;;;;;;;0.20;0.10;;;13.70;99.90;;;;;;26424970;22;20194;-73
2022/05/13 05:16:40;;;;;;;0.20;0.10;;;14.20;99.90;;;;;;26432226;22;20224;-74
2022/05/13 05:26:45;;;;;;;0.20;0.10;;;14.50;99.90;;;;;;26403590;22;20190;-74
2022/05/13 05:36:49;;;;;;;0.20;0.03;;;14.60;99.90;;;;;;26430251;22;20172;-75
2022/05/13 05:46:54;;;;;;;0.20;0.10;;;15.20;99.90;;;;;;26428972;22;20178;-73
2022/05/13 05:57:18;;;;;;;0.20;0.10;;;15.40;99.90;;;;;;26422645;22;20201;-75
2022/05/13 06:07:23;;;;;;;0.20;0.10;;;16.20;99.90;;;;;;26391750;22;20206;-75
2022/05/13 06:17:27;;;;;;;0.20;0.10;;;16.80;99.90;;;;;;26426635;22;20166;-73
2022/05/13 06:27:33;;;;;;;0.20;0.10;;;17.30;99.90;;;;;;26426567;22;20186;-74
2022/05/13 06:37:37;;;;;;;0.20;0.10;;;17.50;99.90;;;;;;26425673;22;20157;-74
2022/05/13 06:47:45;;;;;;;0.20;0.00;;;18.00;99.90;;;;;;26424681;22;20174;-75
2022/05/13 06:57:49;;;;;;;0.20;0.10;;;18.30;99.90;;;;;;26424780;22;20182;-75
2022/05/13 07:07:55;;;;;;;0.20;0.10;;;19.00;99.90;;;;;;26421641;22;20209;-74
2022/05/13 07:17:59;;;;;;;0.20;0.10;;;19.60;99.90;;;;;;26365749;22;20174;-76
2022/05/13 07:28:05;;;;;;;0.20;0.10;;;19.50;99.90;;;;;;26427156;22;20189;-72
2022/05/13 07:38:11;;;;;;;0.20;0.10;;;19.10;99.90;;;;;;26422128;22;20169;-76
2022/05/13 07:48:16;;;;;;;0.20;0.10;;;18.90;99.90;;;;;;26424185;22;20277;-75
2022/05/13 07:58:20;;;;;;;0.20;0.00;;;19.10;99.90;;;;;;26395721;22;20197;-72
2022/05/13 08:08:30;;;;;;;0.20;0.10;;;19.00;99.90;;;;;;26422177;22;20208;-74
2022/05/13 08:18:34;;;;;;;0.20;0.10;;;18.90;99.90;;;;;;26393170;22;20158;-74
2022/05/13 08:28:42;;;;;;;0.20;0.10;;;19.20;99.90;;;;;;26393917;22;20179;-72
2022/05/13 08:38:47;;;;;;;0.20;0.13;;;19.20;99.90;;;;;;26393813;22;20158;-76
2022/05/13 08:48:55;;;;;;;0.53;0.43;;;19.00;99.90;;;;;;26426193;22;20186;-79
2022/05/13 08:59:05;;;;;;;0.20;0.10;;;18.80;99.90;;;;;;26429901;22;20324;-75
2022/05/13 09:09:12;;;;;;;0.20;0.10;;;19.30;99.90;;;;;;26401781;22;20494;-74
2022/05/13 09:19:24;;;;;;;0.30;0.30;;;19.50;99.90;;;;;;26402037;22;20162;-74
2022/05/13 09:29:39;;;;;;;0.20;0.10;;;19.40;99.90;;;;;;26395794;22;20190;-77
2022/05/13 09:39:45;;;;;;;0.20;0.00;;;19.70;99.90;;;;;;26417417;22;20179;-82
2022/05/13 09:49:51;;;;;;;0.20;0.10;;;19.90;99.90;;;;;;26417465;22;20250;-82
2022/05/13 10:00:00;;;;;;;3.60;0.73;;;20.30;99.90;;;;;;26417480;22;20207;-79
2022/05/13 10:20:41;;;;;;;0.20;0.10;;;20.50;99.90;;;;;;26361869;22;20169;-84
2022/05/13 10:30:51;;;;;;;0.20;0.00;;;20.50;99.90;;;;;;26389272;22;20182;-80
2022/05/13 10:40:58;;;;;;;0.30;0.30;;;20.80;99.90;;;;;;26364120;22;20169;-78
2022/05/13 10:51:17;;;;;;;0.20;0.10;;;21.20;99.90;;;;;;26388236;22;20265;-79
2022/05/13 11:01:40;;;;;;;0.50;0.20;;;21.70;99.90;;;;;;26385947;22;20178;-79
2022/05/13 11:11:46;;;;;;;0.20;0.20;;;22.10;99.90;;;;;;26385693;22;20227;-77
2022/05/13 11:22:00;;;;;;;0.20;0.00;;;22.20;99.90;;;;;;26415344;22;20155;-72
2022/05/13 11:32:21;;;;;;;0.20;0.00;;;22.90;99.90;;;;;;26414846;22;20181;-80
2022/05/13 11:43:18;;;;;;;2.37;2.17;;;23.50;99.90;;;;;;26415348;22;20166;-78
2022/05/13 11:53:06;;;;;;;0.20;0.00;;;23.50;99.90;;;;;;26417058;22;20186;-78
2022/05/13 12:03:19;;;;;;;0.20;0.03;;;24.00;99.90;;;;;;26360170;22;20190;-78
2022/05/13 12:13:34;;;;;;;0.20;0.00;;;23.70;99.90;;;;;;26388234;22;20615;-77
2022/05/13 12:23:43;;;;;;;0.35;0.30;;;24.60;99.90;;;;;;26419286;22;20177;-81
2022/05/13 12:37:33;;;;;;;0.20;0.00;;;24.70;99.90;;;;;;26416205;22;20166;-75
2022/05/13 12:44:27;;;;;;;0.40;0.40;;;25.10;99.90;;;;;;26384642;22;20847;-75
2022/05/13 12:54:36;;;;;;;0.20;0.00;;;25.70;99.90;;;;;;26421510;22;20182;-75
2022/05/13 13:04:53;;;;;;;0.20;0.10;;;26.00;99.90;;;;;;26418924;22;20178;-73
2022/05/13 13:15:02;;;;;;;0.20;0.00;;;26.50;99.90;;;;;;26234156;22;20165;-75
2022/05/13 13:25:24;;;;;;;0.20;0.00;;;26.90;99.90;;;;;;26290015;22;20201;-75
2022/05/13 13:35:31;;;;;;;0.20;0.00;;;26.50;99.90;;;;;;26258971;22;20183;-73
2022/05/13 13:45:35;;;;;;;0.20;0.10;;;26.60;99.90;;;;;;26288522;22;20246;-77
2022/05/13 13:55:41;;;;;;;0.25;0.13;;;26.30;99.90;;;;;;26261984;22;20187;-79
2022/05/13 14:05:52;;;;;;;0.20;0.00;;;26.50;99.90;;;;;;26258930;22;20194;-76
2022/05/13 14:16:11;;;;;;;0.20;0.00;;;26.90;99.90;;;;;;26260040;22;20196;-77
2022/05/13 14:26:15;;;;;;;0.20;0.10;;;27.70;99.90;;;;;;26259117;22;20224;-75
2022/05/13 14:36:24;;;;;;;0.20;0.00;;;27.60;99.90;;;;;;26257198;22;20167;-79
2022/05/13 14:46:35;;;;;;;0.20;0.20;;;27.00;99.90;;;;;;26287009;22;20194;-81
2022/05/13 14:56:49;;;;;;;0.20;0.10;;;28.40;99.90;;;;;;26249470;22;20227;-76
2022/05/13 15:06:53;;;;;;;0.20;0.00;;;27.50;99.90;;;;;;26282547;22;20194;-77
2022/05/13 15:17:00;;;;;;;0.20;0.00;;;26.60;99.90;;;;;;26279277;22;20163;-75
2022/05/13 15:27:09;;;;;;;0.20;0.10;;;26.70;99.90;;;;;;26252489;22;20215;-79
2022/05/13 16:12:21;;;;;;;0.20;0.00;;;24.10;99.90;;;;;;26354514;22;20203;-76
2022/05/13 16:22:25;;;;;;;0.30;0.30;;;23.10;99.90;;;;;;26276935;22;20173;-77
2022/05/13 16:32:31;;;;;;;0.20;0.00;;;22.80;99.90;;;;;;26279517;22;20183;-77
2022/05/13 16:42:34;;;;;;;0.20;0.10;;;22.80;99.90;;;;;;26278541;22;20163;-81
2022/05/13 16:52:40;;;;;;;0.20;0.00;;;22.80;99.90;;;;;;26278936;22;20198;-75
2022/05/13 17:02:45;;;;;;;0.20;0.00;;;23.30;99.90;;;;;;26275931;22;20155;-75
2022/05/13 17:23:12;;;;;;;0.20;0.00;;;26.00;99.90;;;;;;26282449;22;20163;-75
2022/05/13 17:33:18;;;;;;;0.20;0.00;;;25.80;99.90;;;;;;26285595;22;20206;-75
2022/05/13 17:43:23;;;;;;;0.20;0.00;;;25.50;99.90;;;;;;26285976;22;20167;-79
2022/05/13 17:53:33;;;;;;;0.20;0.00;;;25.10;99.90;;;;;;26287738;22;20190;-76
2022/05/13 18:03:38;;;;;;;0.20;0.00;;;24.60;99.90;;;;;;26286258;22;20150;-76
2022/05/13 18:13:43;;;;;;;0.20;0.10;;;22.80;99.90;;;;;;26321176;22;20201;-74
2022/05/13 18:23:51;;;;;;;0.20;0.00;;;22.40;99.90;;;;;;26415207;22;20173;-75
2022/05/13 18:34:01;;;;;;;0.20;0.00;;;23.00;99.90;;;;;;26383209;22;20177;-75
2022/05/13 18:54:28;;;;;;;0.20;0.10;;;21.20;99.90;;;;;;26412184;22;20245;-78
2022/05/13 19:04:32;;;;;;;0.20;0.10;;;21.00;99.90;;;;;;26382716;22;20174;-77
2022/05/13 19:14:37;;;;;;;0.20;0.00;;;20.70;99.90;;;;;;26404148;22;21083;-77
2022/05/13 19:24:41;;;;;;;0.20;0.10;;;20.50;99.90;;;;;;26383405;22;20241;-77
2022/05/13 19:34:49;;;;;;;0.20;0.00;;;20.30;99.90;;;;;;26383925;22;20162;-78
2022/05/13 19:44:53;;;;;;;0.20;0.00;;;20.00;99.90;;;;;;26413450;22;20189;-77
2022/05/13 19:54:58;;;;;;;0.20;0.10;;;19.70;99.90;;;;;;26384697;22;20208;-76
2022/05/13 20:15:25;;;;;;;0.20;0.00;;;19.10;99.90;;;;;;26413733;22;20198;-77
2022/05/13 20:25:31;;;;;;;0.20;0.00;;;18.90;99.90;;;;;;26388572;22;20186;-74
2022/05/13 20:35:38;;;;;;;0.20;0.10;;;18.80;99.90;;;;;;26421928;22;20162;-75
2022/05/13 20:45:44;;;;;;;0.20;0.00;;;18.40;99.90;;;;;;26400112;22;20185;-73
2022/05/13 20:55:49;;;;;;;0.20;0.10;;;18.20;99.90;;;;;;26430455;22;20182;-74
2022/05/13 21:05:53;;;;;;;0.20;0.00;;;18.30;99.90;;;;;;26378343;22;20186;-74
2022/05/13 21:16:03;;;;;;;0.20;0.10;;;18.60;99.90;;;;;;26401542;22;20194;-76
2022/05/13 21:26:09;;;;;;;0.20;0.10;;;18.10;99.90;;;;;;26429728;22;20182;-74
2022/05/13 21:46:37;;;;;;;0.20;0.00;;;17.80;99.90;;;;;;26430224;22;20207;-73
2022/05/13 21:56:43;;;;;;;0.20;0.10;;;18.10;99.90;;;;;;26426951;22;20211;-74
2022/05/13 22:06:47;;;;;;;0.20;0.10;;;17.80;99.90;;;;;;26428965;22;20178;-74
2022/05/13 22:16:53;;;;;;;0.20;0.03;;;17.70;99.90;;;;;;26428694;22;20197;-74
2022/05/13 22:26:59;;;;;;;0.20;0.00;;;17.90;99.90;;;;;;26400765;22;20197;-72
2022/05/13 22:37:06;;;;;;;0.30;0.30;;;17.90;99.90;;;;;;26427434;22;20218;-73
2022/05/13 22:47:18;;;;;;;0.20;0.00;;;17.70;99.90;;;;;;26400177;22;20200;-73
2022/05/13 22:57:23;;;;;;;0.20;0.10;;;17.10;99.90;;;;;;26428161;22;20181;-74
2022/05/13 23:17:50;;;;;;;0.20;0.00;;;17.00;99.90;;;;;;26425365;22;20185;-73
2022/05/13 23:27:53;;;;;;;0.20;0.10;;;17.00;99.90;;;;;;26400567;22;20179;-73
2022/05/13 23:37:58;;;;;;;0.20;0.10;;;17.00;99.90;;;;;;26425240;22;20162;-72
2022/05/13 23:48:05;;;;;;;0.20;0.10;;;17.00;99.90;;;;;;26422871;22;20178;-73
2022/05/13 23:58:12;;;;;;;0.20;0.10;;;17.30;99.90;;;;;;26398418;22;20178;-74
